Allendale, MI

3:18 PM EDT on April 28, 2015 (GMT -0400)
Fremont | | Change Station
CLOSE
Current Station
Airport
Location: Fremont,
Elevation: 771 ft
Nearby Weather Stations

Elev 771 ft 43.44 °N, 85.99 °W | Updated 3 minutes ago

Partly Cloudy
Partly Cloudy
61 °F
Feels Like 61 °F
N
7
Wind Variable Wind from NE

Today
High -- | Low -- °F
--% Chance of Precip.
Yesterday
High -- | Low -- °F
Precip. -- in
6:42 AM 8:41 PM
Waxing Gibbous, 75% visible
Pressure 30.04 in
Visibility 10.0 miles
Clouds Clear
Dew Point 32 °F
Humidity 33%
Rainfall 0.00 in
Snow Depth Not available.
UV 9 out of 12
Pollen 10.60 out of 12
Air Quality Not available.
Flu Activity Regional
METAR KFFX 281915Z AUTO 04006KT 10SM CLR 16/00 A3004 RMK AO2 T01611001

More Conditions Fewer Conditions

Pressure 30.04 in
Visibility 10.0 miles
Clouds Clear
Dew Point 32 °F
Humidity 33%
Rainfall 0.00 in
Snow Depth Not available.
UV 9 out of 12
Pollen 10.60 out of 12
Air Quality Not available.
Flu Activity Regional
METAR KFFX 281915Z AUTO 04006KT 10SM CLR 16/00 A3004 RMK AO2 T01611001

More Conditions Fewer Conditions

10-Day Weather Forecast

Almanac

Astronomy

Apr. 28, 2015 Rise Set
Actual Time
Civil Twilight
Nautical Twilight
Astronomical Twilight
Moon
Length of Visible Light
Length of Day
Tomorrow will be .
, % of the Moon is Illuminated

Today's Extremes

State Highs State Lows

Community

WunderPhotos

Upload Photos

1,817,733 photos uploaded!

WunderBlogs® & News

Nearby

Air Quality

  Air Quality AQ Index Pollutant
Not available.

Snow Depth

Station Depth Elevation

Earthquake Activity

City Distance Mag. Time & Date
Minimum magnitude displayed is 2.5.

Coastal Water Temperatures

Place Temperature

Stations

Nearby Weather Stations

Station Location Temp. Windchill Dew Point Humidity Wind Precip. Elev Updated Type